sensor_id;sensor_type;location;lat;lon;timestamp;pressure;altitude;pressure_sealevel;temperature;humidity
79150;BME280;68563;45.644;13.782;2023-04-09T00:02:13;101391.16;;;10.12;51.24
79150;BME280;68563;45.644;13.782;2023-04-09T00:04:39;101380.81;;;10.28;50.86
79150;BME280;68563;45.644;13.782;2023-04-09T00:07:05;101410.13;;;10.33;50.43
79150;BME280;68563;45.644;13.782;2023-04-09T00:09:30;101393.78;;;10.40;50.32
79150;BME280;68563;45.644;13.782;2023-04-09T00:11:56;101392.03;;;10.24;50.66
79150;BME280;68563;45.644;13.782;2023-04-09T00:14:22;101393.78;;;10.18;50.10
79150;BME280;68563;45.644;13.782;2023-04-09T00:16:48;101412.72;;;10.27;50.12
79150;BME280;68563;45.644;13.782;2023-04-09T00:19:13;101383.41;;;10.31;49.85
79150;BME280;68563;45.644;13.782;2023-04-09T00:21:39;101369.59;;;10.19;49.92
79150;BME280;68563;45.644;13.782;2023-04-09T00:24:04;101382.53;;;10.27;49.82
79150;BME280;68563;45.644;13.782;2023-04-09T00:26:30;101398.94;;;10.15;49.96
79150;BME280;68563;45.644;13.782;2023-04-09T00:28:55;101359.25;;;10.18;49.81
79150;BME280;68563;45.644;13.782;2023-04-09T00:31:21;101389.44;;;10.03;50.15
79150;BME280;68563;45.644;13.782;2023-04-09T00:33:46;101378.22;;;10.03;49.81
79150;BME280;68563;45.644;13.782;2023-04-09T00:36:12;101391.13;;;9.80;50.41
79150;BME280;68563;45.644;13.782;2023-04-09T00:38:37;101383.34;;;9.84;50.32
79150;BME280;68563;45.644;13.782;2023-04-09T00:41:02;101385.97;;;9.86;49.96
79150;BME280;68563;45.644;13.782;2023-04-09T00:43:28;101395.44;;;9.76;49.69
79150;BME280;68563;45.644;13.782;2023-04-09T00:45:53;101368.72;;;9.86;49.35
79150;BME280;68563;45.644;13.782;2023-04-09T00:48:20;101382.53;;;9.87;49.31
79150;BME280;68563;45.644;13.782;2023-04-09T00:50:45;101389.41;;;9.86;49.15
79150;BME280;68563;45.644;13.782;2023-04-09T00:53:11;101386.81;;;9.93;48.78
79150;BME280;68563;45.644;13.782;2023-04-09T00:55:39;101399.78;;;9.89;49.16
79150;BME280;68563;45.644;13.782;2023-04-09T00:58:05;101411.00;;;9.87;49.05
79150;BME280;68563;45.644;13.782;2023-04-09T01:00:31;101418.72;;;9.92;48.81
79150;BME280;68563;45.644;13.782;2023-04-09T01:02:57;101404.94;;;9.97;48.77
79150;BME280;68563;45.644;13.782;2023-04-09T01:05:52;101385.13;;;10.04;48.46
79150;BME280;68563;45.644;13.782;2023-04-09T01:11:26;101387.69;;;10.09;47.96
79150;BME280;68563;45.644;13.782;2023-04-09T01:16:35;101410.13;;;9.97;48.12
79150;BME280;68563;45.644;13.782;2023-04-09T01:19:37;101398.91;;;9.92;48.14
79150;BME280;68563;45.644;13.782;2023-04-09T01:22:23;101356.63;;;9.78;48.19
79150;BME280;68563;45.644;13.782;2023-04-09T01:25:08;101388.56;;;9.86;47.96
79150;BME280;68563;45.644;13.782;2023-04-09T01:27:46;101415.31;;;9.94;48.01
79150;BME280;68563;45.644;13.782;2023-04-09T01:30:18;101424.75;;;9.73;48.33
79150;BME280;68563;45.644;13.782;2023-04-09T01:32:44;101373.00;;;9.84;47.80
79150;BME280;68563;45.644;13.782;2023-04-09T01:35:10;101384.19;;;9.69;48.15
79150;BME280;68563;45.644;13.782;2023-04-09T01:37:37;101423.88;;;9.76;48.02
79150;BME280;68563;45.644;13.782;2023-04-09T01:40:04;101380.78;;;9.83;47.97
79150;BME280;68563;45.644;13.782;2023-04-09T01:42:30;101393.69;;;9.84;48.12
79150;BME280;68563;45.644;13.782;2023-04-09T01:44:56;101400.59;;;9.74;47.90
79150;BME280;68563;45.644;13.782;2023-04-09T01:47:23;101367.81;;;9.78;47.94
79150;BME280;68563;45.644;13.782;2023-04-09T01:49:49;101372.16;;;9.85;48.08
79150;BME280;68563;45.644;13.782;2023-04-09T01:52:15;101376.44;;;9.76;48.23
79150;BME280;68563;45.644;13.782;2023-04-09T01:54:41;101379.88;;;9.68;48.18
79150;BME280;68563;45.644;13.782;2023-04-09T01:57:07;101361.78;;;9.62;48.20
79150;BME280;68563;45.644;13.782;2023-04-09T01:59:32;101420.41;;;9.66;48.30
79150;BME280;68563;45.644;13.782;2023-04-09T02:02:06;101386.78;;;9.69;47.96
79150;BME280;68563;45.644;13.782;2023-04-09T02:04:40;101398.00;;;9.74;47.69
79150;BME280;68563;45.644;13.782;2023-04-09T02:09:36;101423.00;;;9.66;47.56
79150;BME280;68563;45.644;13.782;2023-04-09T02:12:05;101423.00;;;9.74;47.44
79150;BME280;68563;45.644;13.782;2023-04-09T02:14:32;101385.06;;;9.74;47.22
79150;BME280;68563;45.644;13.782;2023-04-09T02:16:58;101394.56;;;9.80;46.91
79150;BME280;68563;45.644;13.782;2023-04-09T02:19:24;101379.91;;;9.78;46.41
79150;BME280;68563;45.644;13.782;2023-04-09T02:21:49;101398.88;;;9.75;46.70
79150;BME280;68563;45.644;13.782;2023-04-09T02:24:15;101392.84;;;9.71;46.75
79150;BME280;68563;45.644;13.782;2023-04-09T02:26:40;101386.81;;;9.80;46.58
79150;BME280;68563;45.644;13.782;2023-04-09T02:29:05;101396.28;;;9.70;46.95
79150;BME280;68563;45.644;13.782;2023-04-09T02:31:31;101376.44;;;9.68;46.54
79150;BME280;68563;45.644;13.782;2023-04-09T02:33:56;101375.56;;;9.67;46.73
79150;BME280;68563;45.644;13.782;2023-04-09T02:36:21;101383.34;;;9.63;46.82
79150;BME280;68563;45.644;13.782;2023-04-09T02:38:47;101398.00;;;9.73;46.67
79150;BME280;68563;45.644;13.782;2023-04-09T02:41:12;101383.34;;;9.72;46.42
79150;BME280;68563;45.644;13.782;2023-04-09T02:43:38;101412.63;;;9.58;46.68
79150;BME280;68563;45.644;13.782;2023-04-09T02:46:03;101387.63;;;9.56;46.57
79150;BME280;68563;45.644;13.782;2023-04-09T02:48:29;101398.84;;;9.63;46.24
79150;BME280;68563;45.644;13.782;2023-04-09T02:50:54;101392.78;;;9.50;46.85
79150;BME280;68563;45.644;13.782;2023-04-09T02:53:19;101443.63;;;9.49;46.24
79150;BME280;68563;45.644;13.782;2023-04-09T02:55:48;101401.41;;;9.60;46.38
79150;BME280;68563;45.644;13.782;2023-04-09T02:58:13;101406.59;;;9.61;46.02
79150;BME280;68563;45.644;13.782;2023-04-09T03:00:38;101426.44;;;9.65;46.07
79150;BME280;68563;45.644;13.782;2023-04-09T03:03:04;101417.00;;;9.73;45.89
79150;BME280;68563;45.644;13.782;2023-04-09T03:05:29;101436.81;;;9.78;45.87
79150;BME280;68563;45.644;13.782;2023-04-09T03:07:55;101422.16;;;9.77;45.94
79150;BME280;68563;45.644;13.782;2023-04-09T03:10:21;101420.44;;;9.76;45.87
79150;BME280;68563;45.644;13.782;2023-04-09T03:12:46;101402.31;;;9.72;45.85
79150;BME280;68563;45.644;13.782;2023-04-09T03:15:12;101411.81;;;9.81;45.70
79150;BME280;68563;45.644;13.782;2023-04-09T03:17:38;101405.78;;;9.71;45.76
79150;BME280;68563;45.644;13.782;2023-04-09T03:20:04;101425.63;;;9.77;45.80
79150;BME280;68563;45.644;13.782;2023-04-09T03:22:34;101421.25;;;9.61;45.81
79150;BME280;68563;45.644;13.782;2023-04-09T03:25:00;101417.78;;;9.55;46.17
79150;BME280;68563;45.644;13.782;2023-04-09T03:27:25;101410.03;;;9.51;46.39
79150;BME280;68563;45.644;13.782;2023-04-09T03:29:54;101417.81;;;9.63;46.13
79150;BME280;68563;45.644;13.782;2023-04-09T03:32:20;101416.06;;;9.54;46.17
79150;BME280;68563;45.644;13.782;2023-04-09T03:34:45;101401.41;;;9.52;45.91
79150;BME280;68563;45.644;13.782;2023-04-09T03:37:11;101423.84;;;9.62;45.76
79150;BME280;68563;45.644;13.782;2023-04-09T03:39:36;101418.66;;;9.62;45.81
79150;BME280;68563;45.644;13.782;2023-04-09T03:42:01;101404.00;;;9.61;45.88
79150;BME280;68563;45.644;13.782;2023-04-09T03:44:27;101416.94;;;9.61;45.54
79150;BME280;68563;45.644;13.782;2023-04-09T03:46:52;101394.53;;;9.63;44.90
79150;BME280;68563;45.644;13.782;2023-04-09T03:49:17;101410.94;;;9.65;44.54
79150;BME280;68563;45.644;13.782;2023-04-09T03:51:43;101408.34;;;9.65;45.20
79150;BME280;68563;45.644;13.782;2023-04-09T03:54:08;101427.28;;;9.67;45.29
79150;BME280;68563;45.644;13.782;2023-04-09T03:56:34;101397.97;;;9.62;45.08
79150;BME280;68563;45.644;13.782;2023-04-09T03:58:59;101406.59;;;9.67;44.73
79150;BME280;68563;45.644;13.782;2023-04-09T04:01:25;101414.41;;;9.73;44.61
79150;BME280;68563;45.644;13.782;2023-04-09T04:03:50;101399.72;;;9.63;44.62
79150;BME280;68563;45.644;13.782;2023-04-09T04:06:15;101424.69;;;9.61;44.63
79150;BME280;68563;45.644;13.782;2023-04-09T04:08:41;101410.91;;;9.62;44.80
79150;BME280;68563;45.644;13.782;2023-04-09T04:11:06;101422.97;;;9.60;44.94
79150;BME280;68563;45.644;13.782;2023-04-09T04:13:31;101416.09;;;9.59;44.85
79150;BME280;68563;45.644;13.782;2023-04-09T04:15:57;101419.50;;;9.56;45.13
79150;BME280;68563;45.644;13.782;2023-04-09T04:18:22;101425.53;;;9.51;45.20
79150;BME280;68563;45.644;13.782;2023-04-09T04:20:48;101403.09;;;9.47;45.19
79150;BME280;68563;45.644;13.782;2023-04-09T04:23:13;101403.94;;;9.44;44.76
79150;BME280;68563;45.644;13.782;2023-04-09T04:25:42;101422.06;;;9.49;45.13
79150;BME280;68563;45.644;13.782;2023-04-09T04:28:07;101406.56;;;9.46;44.96
79150;BME280;68563;45.644;13.782;2023-04-09T04:30:33;101425.56;;;9.57;44.84
79150;BME280;68563;45.644;13.782;2023-04-09T04:32:58;101410.81;;;9.34;45.16
79150;BME280;68563;45.644;13.782;2023-04-09T04:35:24;101415.97;;;9.31;45.41
79150;BME280;68563;45.644;13.782;2023-04-09T04:37:49;101423.75;;;9.40;45.22
79150;BME280;68563;45.644;13.782;2023-04-09T04:40:17;101447.94;;;9.47;44.81
79150;BME280;68563;45.644;13.782;2023-04-09T04:42:43;101426.38;;;9.42;45.02
79150;BME280;68563;45.644;13.782;2023-04-09T04:45:08;101441.03;;;9.52;44.83
79150;BME280;68563;45.644;13.782;2023-04-09T04:47:34;101441.00;;;9.43;44.89
79150;BME280;68563;45.644;13.782;2023-04-09T04:50:00;101426.38;;;9.51;44.73
79150;BME280;68563;45.644;13.782;2023-04-09T04:52:25;101449.59;;;9.40;45.06
79150;BME280;68563;45.644;13.782;2023-04-09T04:54:51;101471.16;;;9.42;45.30
79150;BME280;68563;45.644;13.782;2023-04-09T04:57:16;101444.44;;;9.37;45.49
79150;BME280;68563;45.644;13.782;2023-04-09T04:59:42;101425.47;;;9.41;45.15
79150;BME280;68563;45.644;13.782;2023-04-09T05:02:07;101422.06;;;9.42;45.22
79150;BME280;68563;45.644;13.782;2023-04-09T05:04:33;101437.59;;;9.46;45.26
79150;BME280;68563;45.644;13.782;2023-04-09T05:06:58;101434.97;;;9.42;45.27
79150;BME280;68563;45.644;13.782;2023-04-09T05:09:24;101432.41;;;9.49;45.16
79150;BME280;68563;45.644;13.782;2023-04-09T05:11:49;101429.81;;;9.44;45.05
79150;BME280;68563;45.644;13.782;2023-04-09T05:14:15;101431.50;;;9.37;45.29
79150;BME280;68563;45.644;13.782;2023-04-09T05:16:40;101431.53;;;9.44;45.11
79150;BME280;68563;45.644;13.782;2023-04-09T05:19:06;101449.59;;;9.31;45.25
79150;BME280;68563;45.644;13.782;2023-04-09T05:21:31;101422.91;;;9.43;44.79
79150;BME280;68563;45.644;13.782;2023-04-09T05:23:57;101440.13;;;9.39;45.05
79150;BME280;68563;45.644;13.782;2023-04-09T05:26:23;101461.69;;;9.41;45.02
79150;BME280;68563;45.644;13.782;2023-04-09T05:28:48;101453.06;;;9.41;44.88
79150;BME280;68563;45.644;13.782;2023-04-09T05:31:14;101440.16;;;9.49;44.89
79150;BME280;68563;45.644;13.782;2023-04-09T05:33:40;101441.84;;;9.40;44.73
79150;BME280;68563;45.644;13.782;2023-04-09T05:36:06;101441.88;;;9.47;44.67
79150;BME280;68563;45.644;13.782;2023-04-09T05:38:32;101432.38;;;9.42;44.57
79150;BME280;68563;45.644;13.782;2023-04-09T05:40:58;101457.44;;;9.54;44.53
79150;BME280;68563;45.644;13.782;2023-04-09T05:43:23;101460.81;;;9.36;44.93
79150;BME280;68563;45.644;13.782;2023-04-09T05:45:49;101433.22;;;9.35;44.76
79150;BME280;68563;45.644;13.782;2023-04-09T05:48:15;101456.53;;;9.45;44.78
79150;BME280;68563;45.644;13.782;2023-04-09T05:50:48;101467.72;;;9.47;44.60
79150;BME280;68563;45.644;13.782;2023-04-09T05:53:13;101467.78;;;9.56;44.53
79150;BME280;68563;45.644;13.782;2023-04-09T05:55:39;101465.22;;;9.62;44.40
79150;BME280;68563;45.644;13.782;2023-04-09T05:58:16;101471.28;;;9.63;44.28
79150;BME280;68563;45.644;13.782;2023-04-09T06:00:45;101466.94;;;9.63;44.12
79150;BME280;68563;45.644;13.782;2023-04-09T06:03:11;101456.59;;;9.63;44.42
79150;BME280;68563;45.644;13.782;2023-04-09T06:05:36;101459.19;;;9.65;44.53
79150;BME280;68563;45.644;13.782;2023-04-09T06:08:02;101469.56;;;9.68;44.69
79150;BME280;68563;45.644;13.782;2023-04-09T06:10:27;101466.91;;;9.60;44.86
79150;BME280;68563;45.644;13.782;2023-04-09T06:12:52;101464.34;;;9.65;44.74
79150;BME280;68563;45.644;13.782;2023-04-09T06:15:19;101473.88;;;9.77;44.53
79150;BME280;68563;45.644;13.782;2023-04-09T06:17:45;101467.81;;;9.67;44.75
79150;BME280;68563;45.644;13.782;2023-04-09T06:20:10;101471.31;;;9.77;44.64
79150;BME280;68563;45.644;13.782;2023-04-09T06:22:36;101480.78;;;9.81;44.61
79150;BME280;68563;45.644;13.782;2023-04-09T06:25:02;101479.09;;;9.86;44.59
79150;BME280;68563;45.644;13.782;2023-04-09T06:27:27;101482.53;;;9.88;44.39
79150;BME280;68563;45.644;13.782;2023-04-09T06:29:52;101498.09;;;9.89;44.39
79150;BME280;68563;45.644;13.782;2023-04-09T06:32:18;101482.56;;;9.93;43.86
79150;BME280;68563;45.644;13.782;2023-04-09T06:34:43;101473.94;;;9.94;43.86
79150;BME280;68563;45.644;13.782;2023-04-09T06:37:09;101485.19;;;10.03;43.65
79150;BME280;68563;45.644;13.782;2023-04-09T06:39:34;101491.25;;;10.12;43.27
79150;BME280;68563;45.644;13.782;2023-04-09T06:41:59;101479.19;;;10.26;43.21
79150;BME280;68563;45.644;13.782;2023-04-09T06:44:25;101490.41;;;10.34;43.10
79150;BME280;68563;45.644;13.782;2023-04-09T06:46:50;101484.38;;;10.35;42.89
79150;BME280;68563;45.644;13.782;2023-04-09T06:49:16;101516.38;;;10.39;42.94
79150;BME280;68563;45.644;13.782;2023-04-09T06:51:41;101491.31;;;10.40;42.91
79150;BME280;68563;45.644;13.782;2023-04-09T06:54:06;101503.41;;;10.51;42.92
79150;BME280;68563;45.644;13.782;2023-04-09T06:56:32;101516.34;;;10.54;42.73
79150;BME280;68563;45.644;13.782;2023-04-09T06:58:58;101506.03;;;10.67;42.41
79150;BME280;68563;45.644;13.782;2023-04-09T07:01:24;101511.19;;;10.79;43.17
79150;BME280;68563;45.644;13.782;2023-04-09T07:03:49;101512.88;;;11.16;50.94
79150;BME280;68563;45.644;13.782;2023-04-09T07:06:15;101515.41;;;11.44;43.34
79150;BME280;68563;45.644;13.782;2023-04-09T07:08:40;101513.72;;;11.37;41.63
79150;BME280;68563;45.644;13.782;2023-04-09T07:11:05;101511.97;;;11.34;41.54
79150;BME280;68563;45.644;13.782;2023-04-09T07:13:31;101542.25;;;11.35;41.48
79150;BME280;68563;45.644;13.782;2023-04-09T07:15:57;101517.13;;;11.42;41.68
79150;BME280;68563;45.644;13.782;2023-04-09T07:18:22;101527.53;;;11.45;41.30
79150;BME280;68563;45.644;13.782;2023-04-09T07:20:47;101513.66;;;11.52;41.35
79150;BME280;68563;45.644;13.782;2023-04-09T07:23:13;101537.84;;;11.59;41.05
79150;BME280;68563;45.644;13.782;2023-04-09T07:25:38;101521.41;;;11.63;41.15
79150;BME280;68563;45.644;13.782;2023-04-09T07:28:04;101539.56;;;11.68;41.17
79150;BME280;68563;45.644;13.782;2023-04-09T07:30:29;101520.59;;;11.41;41.37
79150;BME280;68563;45.644;13.782;2023-04-09T07:32:54;101543.94;;;11.47;41.54
79150;BME280;68563;45.644;13.782;2023-04-09T07:35:20;101531.00;;;11.38;41.38
79150;BME280;68563;45.644;13.782;2023-04-09T07:37:45;101544.81;;;11.43;41.34
79150;BME280;68563;45.644;13.782;2023-04-09T07:40:11;101565.53;;;11.55;41.26
79150;BME280;68563;45.644;13.782;2023-04-09T07:42:37;101533.53;;;11.58;41.22
79150;BME280;68563;45.644;13.782;2023-04-09T07:45:03;101530.97;;;11.50;40.80
79150;BME280;68563;45.644;13.782;2023-04-09T07:47:29;101556.88;;;11.59;40.99
79150;BME280;68563;45.644;13.782;2023-04-09T07:49:55;101593.19;;;11.65;40.56
79150;BME280;68563;45.644;13.782;2023-04-09T07:52:20;101568.97;;;11.71;40.43
79150;BME280;68563;45.644;13.782;2023-04-09T07:54:46;101569.78;;;11.73;40.56
79150;BME280;68563;45.644;13.782;2023-04-09T07:57:11;101613.09;;;11.53;40.70
79150;BME280;68563;45.644;13.782;2023-04-09T07:59:36;101582.84;;;11.53;40.87
79150;BME280;68563;45.644;13.782;2023-04-09T08:02:02;101556.03;;;11.49;40.99
79150;BME280;68563;45.644;13.782;2023-04-09T08:04:27;101560.34;;;11.52;40.94
79150;BME280;68563;45.644;13.782;2023-04-09T08:06:53;101564.66;;;11.56;40.49
79150;BME280;68563;45.644;13.782;2023-04-09T08:09:19;101561.22;;;11.60;40.97
79150;BME280;68563;45.644;13.782;2023-04-09T08:11:46;101567.22;;;11.72;40.65
79150;BME280;68563;45.644;13.782;2023-04-09T08:14:12;101562.84;;;11.85;40.45
79150;BME280;68563;45.644;13.782;2023-04-09T08:16:39;101591.34;;;12.08;39.98
79150;BME280;68563;45.644;13.782;2023-04-09T08:19:06;101587.88;;;12.06;39.92
79150;BME280;68563;45.644;13.782;2023-04-09T08:21:32;101579.25;;;11.91;40.13
79150;BME280;68563;45.644;13.782;2023-04-09T08:23:57;101575.78;;;11.95;40.28
79150;BME280;68563;45.644;13.782;2023-04-09T08:26:28;101591.38;;;12.06;40.06
79150;BME280;68563;45.644;13.782;2023-04-09T08:28:53;101567.97;;;12.12;39.67
79150;BME280;68563;45.644;13.782;2023-04-09T08:31:19;101566.09;;;12.32;39.43
79150;BME280;68563;45.644;13.782;2023-04-09T08:33:45;101573.00;;;12.42;39.17
79150;BME280;68563;45.644;13.782;2023-04-09T08:36:11;101603.28;;;12.43;39.10
79150;BME280;68563;45.644;13.782;2023-04-09T08:38:36;101587.72;;;12.35;39.34
79150;BME280;68563;45.644;13.782;2023-04-09T08:41:01;101567.03;;;12.26;39.41
79150;BME280;68563;45.644;13.782;2023-04-09T08:43:27;101592.97;;;12.24;40.09
79150;BME280;68563;45.644;13.782;2023-04-09T08:45:52;101580.88;;;12.26;40.29
79150;BME280;68563;45.644;13.782;2023-04-09T08:48:22;101564.41;;;12.24;40.53
79150;BME280;68563;45.644;13.782;2023-04-09T08:50:48;101566.09;;;12.38;40.31
79150;BME280;68563;45.644;13.782;2023-04-09T08:53:14;101562.63;;;12.37;39.64
79150;BME280;68563;45.644;13.782;2023-04-09T08:55:44;101561.75;;;12.40;39.92
79150;BME280;68563;45.644;13.782;2023-04-09T08:58:09;101568.69;;;12.38;39.71
79150;BME280;68563;45.644;13.782;2023-04-09T09:00:36;101556.56;;;12.37;39.77
79150;BME280;68563;45.644;13.782;2023-04-09T09:03:04;101565.16;;;12.47;39.38
79150;BME280;68563;45.644;13.782;2023-04-09T09:05:43;101572.09;;;12.46;39.55
79150;BME280;68563;45.644;13.782;2023-04-09T09:08:11;101584.19;;;12.50;39.35
79150;BME280;68563;45.644;13.782;2023-04-09T09:10:43;101615.41;;;12.44;39.42
79150;BME280;68563;45.644;13.782;2023-04-09T09:15:42;101613.75;;;12.24;39.21
79150;BME280;68563;45.644;13.782;2023-04-09T09:18:07;101601.69;;;12.16;39.51
79150;BME280;68563;45.644;13.782;2023-04-09T09:20:33;101579.22;;;12.11;39.74
79150;BME280;68563;45.644;13.782;2023-04-09T09:22:58;101577.47;;;12.12;39.71
79150;BME280;68563;45.644;13.782;2023-04-09T09:25:24;101568.81;;;12.16;39.82
79150;BME280;68563;45.644;13.782;2023-04-09T09:27:51;101564.50;;;12.13;39.29
79150;BME280;68563;45.644;13.782;2023-04-09T09:30:23;101574.88;;;12.15;39.41
79150;BME280;68563;45.644;13.782;2023-04-09T09:32:53;101576.56;;;12.19;40.53
79150;BME280;68563;45.644;13.782;2023-04-09T09:35:19;101577.41;;;12.23;39.51
79150;BME280;68563;45.644;13.782;2023-04-09T09:37:44;101583.47;;;12.26;39.43
79150;BME280;68563;45.644;13.782;2023-04-09T09:40:10;101574.75;;;12.38;45.04
79150;BME280;68563;45.644;13.782;2023-04-09T09:42:55;101562.56;;;12.45;42.71
79150;BME280;68563;45.644;13.782;2023-04-09T09:45:21;101577.22;;;12.60;42.23
79150;BME280;68563;45.644;13.782;2023-04-09T09:47:48;101568.53;;;12.63;39.35
79150;BME280;68563;45.644;13.782;2023-04-09T09:50:14;101552.03;;;12.68;40.65
79150;BME280;68563;45.644;13.782;2023-04-09T09:52:40;101571.84;;;12.83;39.54
79150;BME280;68563;45.644;13.782;2023-04-09T09:55:12;101560.66;;;12.72;38.63
79150;BME280;68563;45.644;13.782;2023-04-09T09:57:41;101581.53;;;12.61;39.18
79150;BME280;68563;45.644;13.782;2023-04-09T10:00:11;101588.44;;;12.60;38.83
79150;BME280;68563;45.644;13.782;2023-04-09T10:02:49;101579.84;;;12.51;38.26
79150;BME280;68563;45.644;13.782;2023-04-09T10:05:18;101597.25;;;12.41;38.54
79150;BME280;68563;45.644;13.782;2023-04-09T10:07:49;101572.16;;;12.34;38.92
79150;BME280;68563;45.644;13.782;2023-04-09T10:10:15;101557.47;;;12.28;39.35
79150;BME280;68563;45.644;13.782;2023-04-09T10:12:41;101560.94;;;12.25;39.33
79150;BME280;68563;45.644;13.782;2023-04-09T10:15:09;101602.47;;;12.35;39.25
79150;BME280;68563;45.644;13.782;2023-04-09T10:17:35;101586.88;;;12.35;38.36
79150;BME280;68563;45.644;13.782;2023-04-09T10:20:14;101612.00;;;12.33;38.63
79150;BME280;68563;45.644;13.782;2023-04-09T10:22:45;101573.03;;;12.33;38.85
79150;BME280;68563;45.644;13.782;2023-04-09T10:25:12;101573.03;;;12.34;39.53
79150;BME280;68563;45.644;13.782;2023-04-09T10:27:38;101579.09;;;12.32;39.26
79150;BME280;68563;45.644;13.782;2023-04-09T10:30:03;101569.53;;;12.43;39.24
79150;BME280;68563;45.644;13.782;2023-04-09T10:32:34;101585.97;;;12.47;38.50
79150;BME280;68563;45.644;13.782;2023-04-09T10:35:01;101577.31;;;12.43;38.49
79150;BME280;68563;45.644;13.782;2023-04-09T10:37:27;101572.09;;;12.44;38.87
79150;BME280;68563;45.644;13.782;2023-04-09T10:39:54;101567.78;;;12.43;38.93
79150;BME280;68563;45.644;13.782;2023-04-09T10:42:29;101566.88;;;12.46;38.71
79150;BME280;68563;45.644;13.782;2023-04-09T10:45:10;101561.69;;;12.49;38.77
79150;BME280;68563;45.644;13.782;2023-04-09T10:47:41;101568.63;;;12.47;38.14
79150;BME280;68563;45.644;13.782;2023-04-09T10:50:22;101567.72;;;12.50;38.44
79150;BME280;68563;45.644;13.782;2023-04-09T10:52:53;101563.41;;;12.50;38.22
79150;BME280;68563;45.644;13.782;2023-04-09T10:55:39;101539.22;;;12.42;38.21
79150;BME280;68563;45.644;13.782;2023-04-09T10:58:06;101576.41;;;12.50;38.28
79150;BME280;68563;45.644;13.782;2023-04-09T11:00:42;101568.59;;;12.49;38.66
79150;BME280;68563;45.644;13.782;2023-04-09T11:03:22;101531.34;;;12.50;38.30
79150;BME280;68563;45.644;13.782;2023-04-09T11:06:02;101557.34;;;12.51;38.38
79150;BME280;68563;45.644;13.782;2023-04-09T11:08:31;101551.25;;;12.55;38.21
79150;BME280;68563;45.644;13.782;2023-04-09T11:10:58;101539.97;;;12.58;38.15
79150;BME280;68563;45.644;13.782;2023-04-09T11:13:25;101548.59;;;12.61;37.90
79150;BME280;68563;45.644;13.782;2023-04-09T11:15:50;101547.75;;;12.63;37.82
79150;BME280;68563;45.644;13.782;2023-04-09T11:18:21;101584.97;;;12.63;37.99
79150;BME280;68563;45.644;13.782;2023-04-09T11:20:47;101567.69;;;12.59;37.77
79150;BME280;68563;45.644;13.782;2023-04-09T11:23:12;101552.09;;;12.56;37.60
79150;BME280;68563;45.644;13.782;2023-04-09T11:25:38;101553.84;;;12.52;37.78
79150;BME280;68563;45.644;13.782;2023-04-09T11:28:04;101572.09;;;12.46;37.76
79150;BME280;68563;45.644;13.782;2023-04-09T11:30:30;101572.94;;;12.50;37.76
79150;BME280;68563;45.644;13.782;2023-04-09T11:32:56;101553.88;;;12.51;37.88
79150;BME280;68563;45.644;13.782;2023-04-09T11:35:21;101576.38;;;12.53;37.81
79150;BME280;68563;45.644;13.782;2023-04-09T11:37:48;101556.44;;;12.58;38.02
79150;BME280;68563;45.644;13.782;2023-04-09T11:40:18;101578.06;;;12.60;37.82
79150;BME280;68563;45.644;13.782;2023-04-09T11:42:45;101564.19;;;12.65;36.78
79150;BME280;68563;45.644;13.782;2023-04-09T11:45:14;101566.00;;;12.55;36.75
79150;BME280;68563;45.644;13.782;2023-04-09T11:47:41;101535.72;;;12.46;36.95
79150;BME280;68563;45.644;13.782;2023-04-09T11:50:08;101572.94;;;12.51;37.36
79150;BME280;68563;45.644;13.782;2023-04-09T11:52:34;101561.69;;;12.49;37.02
79150;BME280;68563;45.644;13.782;2023-04-09T11:55:06;101564.28;;;12.49;37.11
79150;BME280;68563;45.644;13.782;2023-04-09T11:57:42;101569.44;;;12.52;37.21
79150;BME280;68563;45.644;13.782;2023-04-09T12:02:37;101563.44;;;12.47;37.35
79150;BME280;68563;45.644;13.782;2023-04-09T12:05:03;101555.63;;;12.49;37.06
79150;BME280;68563;45.644;13.782;2023-04-09T12:07:32;101571.19;;;12.55;37.18
79150;BME280;68563;45.644;13.782;2023-04-09T12:10:03;101566.03;;;12.50;37.04
79150;BME280;68563;45.644;13.782;2023-04-09T12:12:29;101538.25;;;12.52;36.95
79150;BME280;68563;45.644;13.782;2023-04-09T12:14:55;101559.91;;;12.57;36.51
79150;BME280;68563;45.644;13.782;2023-04-09T12:17:23;101544.31;;;12.54;36.31
79150;BME280;68563;45.644;13.782;2023-04-09T12:19:48;101544.34;;;12.53;36.20
79150;BME280;68563;45.644;13.782;2023-04-09T12:22:13;101561.63;;;12.57;36.41
79150;BME280;68563;45.644;13.782;2023-04-09T12:24:39;101557.28;;;12.56;36.36
79150;BME280;68563;45.644;13.782;2023-04-09T12:27:04;101549.50;;;12.62;36.46
79150;BME280;68563;45.644;13.782;2023-04-09T12:29:30;101573.72;;;12.66;36.22
79150;BME280;68563;45.644;13.782;2023-04-09T12:31:57;101559.88;;;12.64;36.33
79150;BME280;68563;45.644;13.782;2023-04-09T12:34:22;101529.56;;;12.61;36.52
79150;BME280;68563;45.644;13.782;2023-04-09T12:36:48;101539.03;;;12.68;36.29
79150;BME280;68563;45.644;13.782;2023-04-09T12:39:13;101548.53;;;12.69;36.39
79150;BME280;68563;45.644;13.782;2023-04-09T12:41:38;101532.06;;;12.73;36.42
79150;BME280;68563;45.644;13.782;2023-04-09T12:44:04;101543.34;;;12.71;36.48
79150;BME280;68563;45.644;13.782;2023-04-09T12:46:31;101538.03;;;12.83;35.91
79150;BME280;68563;45.644;13.782;2023-04-09T12:48:56;101513.91;;;12.72;36.40
79150;BME280;68563;45.644;13.782;2023-04-09T12:51:22;101526.84;;;12.75;36.58
79150;BME280;68563;45.644;13.782;2023-04-09T12:53:48;101528.53;;;12.82;36.25
79150;BME280;68563;45.644;13.782;2023-04-09T12:56:13;101523.31;;;12.82;36.61
79150;BME280;68563;45.644;13.782;2023-04-09T12:58:39;101525.81;;;12.93;35.59